Time;durP1;ratioP1;P1;durP2;ratioP2;P2;SDS_P1;SDS_P2;PMS_P1;PMS_P2;Temp;Humidity;BMP_temperature;BMP_pressure;BME280_temperature;BME280_humidity;BME280_pressure;Samples;Min_cycle;Max_cycle;Signal;HPM_P1;HPM_P2
2021/03/27 00:00:54;;;;;;;27.77;25.47;;;7.60;99.90;;;;;;5114410;27;20452;-72
2021/03/27 00:03:27;;;;;;;32.17;29.60;;;7.60;99.90;;;;;;5119084;27;20972;-72
2021/03/27 00:06:01;;;;;;;32.20;29.60;;;7.50;99.90;;;;;;5120370;27;20458;-72
2021/03/27 00:08:38;;;;;;;32.87;30.17;;;7.30;99.90;;;;;;5114864;27;20972;-73
2021/03/27 00:11:12;;;;;;;32.13;29.53;;;7.20;99.90;;;;;;5116967;27;20485;-74
2021/03/27 00:13:52;;;;;;;26.07;24.20;;;7.00;99.90;;;;;;5118342;27;20876;-74
2021/03/27 00:16:24;;;;;;;18.80;17.80;;;6.80;99.90;;;;;;5112052;27;20574;-73
2021/03/27 00:19:04;;;;;;;17.53;16.63;;;6.50;99.90;;;;;;5111067;27;20460;-73
2021/03/27 00:21:38;;;;;;;18.17;17.27;;;6.30;99.90;;;;;;5107597;27;20493;-74
2021/03/27 00:24:09;;;;;;;46.20;26.70;;;6.10;99.90;;;;;;5121784;27;20601;-73
2021/03/27 00:26:40;;;;;;;16.80;16.00;;;6.00;99.90;;;;;;5116692;27;21020;-73
2021/03/27 00:29:12;;;;;;;16.40;15.60;;;5.90;99.90;;;;;;5118806;27;20477;-73
2021/03/27 00:31:44;;;;;;;16.17;15.37;;;6.00;99.90;;;;;;5117443;27;20465;-72
2021/03/27 00:34:16;;;;;;;17.57;16.77;;;5.90;99.90;;;;;;5119697;28;20794;-73
2021/03/27 00:36:45;;;;;;;16.90;16.10;;;5.90;99.90;;;;;;5119269;28;20453;-73
2021/03/27 00:39:16;;;;;;;16.40;15.60;;;5.90;99.90;;;;;;5116774;28;20452;-73
2021/03/27 00:41:49;;;;;;;15.57;14.87;;;5.90;99.90;;;;;;5117914;28;20955;-73
2021/03/27 00:44:18;;;;;;;16.83;16.03;;;5.90;99.90;;;;;;5114394;28;20480;-74
2021/03/27 00:46:46;;;;;;;16.90;16.10;;;5.80;99.90;;;;;;5115894;28;20555;-73
2021/03/27 00:49:16;;;;;;;17.30;16.50;;;5.70;99.90;;;;;;5122301;28;20456;-73
2021/03/27 00:51:49;;;;;;;17.40;16.60;;;5.60;99.90;;;;;;5110334;28;20518;-73
2021/03/27 00:54:24;;;;;;;18.60;17.70;;;5.60;99.90;;;;;;5116111;28;20965;-72
2021/03/27 00:56:59;;;;;;;17.20;16.40;;;5.60;99.90;;;;;;5111009;28;20463;-73
2021/03/27 00:59:28;;;;;;;16.83;16.03;;;5.60;99.90;;;;;;5104746;28;20445;-72
2021/03/27 01:01:58;;;;;;;17.37;16.57;;;5.50;99.90;;;;;;5109747;28;20459;-73
2021/03/27 01:04:30;;;;;;;17.80;16.90;;;5.50;99.90;;;;;;5120880;28;20481;-72
2021/03/27 01:07:00;;;;;;;17.17;16.37;;;5.40;99.90;;;;;;5119752;28;20560;-73
2021/03/27 01:09:30;;;;;;;16.73;15.93;;;5.40;99.90;;;;;;5117849;28;20468;-73
2021/03/27 01:12:01;;;;;;;17.50;16.70;;;5.40;99.90;;;;;;5119205;28;20488;-72
2021/03/27 01:14:31;;;;;;;17.50;16.70;;;5.40;99.90;;;;;;5117202;28;20461;-73
2021/03/27 01:17:00;;;;;;;17.33;16.53;;;5.30;99.90;;;;;;5115596;28;20838;-72
2021/03/27 01:19:33;;;;;;;16.60;15.80;;;5.40;99.90;;;;;;5120509;28;20453;-72
2021/03/27 01:22:03;;;;;;;16.50;15.70;;;5.40;99.90;;;;;;5114995;28;20483;-73
2021/03/27 01:24:33;;;;;;;16.60;15.80;;;5.30;99.90;;;;;;5115762;28;20481;-72
2021/03/27 01:27:03;;;;;;;16.53;15.73;;;5.40;99.90;;;;;;5119581;28;20483;-73
2021/03/27 01:29:36;;;;;;;16.63;15.83;;;5.40;99.90;;;;;;5115844;28;20454;-72
2021/03/27 01:32:14;;;;;;;15.83;15.13;;;5.40;99.90;;;;;;5118492;27;20470;-73
2021/03/27 01:34:44;;;;;;;16.20;15.43;;;5.40;99.90;;;;;;5120528;27;20492;-72
2021/03/27 01:37:17;;;;;;;16.80;16.00;;;5.30;99.90;;;;;;5113788;27;20943;-73
2021/03/27 01:39:52;;;;;;;15.90;15.20;;;5.30;99.90;;;;;;5119872;27;20464;-73
2021/03/27 01:42:26;;;;;;;16.43;15.63;;;5.30;99.90;;;;;;5124254;27;20451;-73
2021/03/27 01:45:06;;;;;;;17.13;16.33;;;5.30;99.90;;;;;;5120913;27;21033;-72
2021/03/27 01:47:36;;;;;;;17.27;16.47;;;5.40;99.90;;;;;;5120184;27;20460;-73
2021/03/27 01:50:25;;;;;;;17.90;17.00;;;5.40;99.90;;;;;;5118405;27;20514;-72
2021/03/27 01:53:16;;;;;;;17.57;16.67;;;5.30;99.90;;;;;;5118938;27;20947;-72
2021/03/27 01:55:53;;;;;;;18.30;17.40;;;5.30;99.90;;;;;;5121919;27;20864;-72
2021/03/27 01:58:24;;;;;;;18.03;17.13;;;5.30;99.90;;;;;;5119053;27;20453;-73
2021/03/27 02:00:53;;;;;;;17.17;16.27;;;5.30;99.90;;;;;;5118883;27;20472;-72
2021/03/27 02:03:25;;;;;;;17.80;16.97;;;5.30;99.90;;;;;;5120354;27;20484;-72
2021/03/27 02:05:58;;;;;;;17.37;16.57;;;5.30;99.90;;;;;;5120429;27;20464;-72
2021/03/27 02:08:39;;;;;;;18.33;17.43;;;5.30;99.90;;;;;;5117078;27;20480;-72
2021/03/27 02:11:10;;;;;;;18.20;17.30;;;5.30;99.90;;;;;;5124255;27;20484;-73
2021/03/27 02:13:44;;;;;;;17.67;16.77;;;5.30;99.90;;;;;;5121799;27;20509;-72
2021/03/27 02:16:19;;;;;;;17.90;17.00;;;5.20;99.90;;;;;;5115907;27;20466;-72
2021/03/27 02:19:01;;;;;;;17.23;16.40;;;5.20;99.90;;;;;;5117030;27;21022;-72
2021/03/27 02:21:46;;;;;;;18.10;17.20;;;5.20;99.90;;;;;;5118429;27;20468;-72
2021/03/27 02:24:36;;;;;;;17.77;16.87;;;5.20;99.90;;;;;;5111079;27;20488;-72
2021/03/27 02:27:09;;;;;;;17.50;16.63;;;5.20;99.90;;;;;;5109543;27;20555;-72
2021/03/27 02:30:10;;;;;;;17.40;16.60;;;5.20;99.90;;;;;;5115150;27;20465;-73
2021/03/27 02:33:01;;;;;;;17.20;16.40;;;5.20;99.90;;;;;;5117881;27;20474;-72
2021/03/27 02:35:50;;;;;;;17.43;16.63;;;5.20;99.90;;;;;;5106504;27;20453;-72
2021/03/27 02:38:26;;;;;;;16.40;15.60;;;5.20;99.90;;;;;;5123531;27;20865;-72
2021/03/27 02:41:02;;;;;;;16.80;16.00;;;5.20;99.90;;;;;;5124036;27;20532;-72
2021/03/27 02:43:35;;;;;;;16.57;15.77;;;5.20;99.90;;;;;;5113367;27;20538;-72
2021/03/27 02:46:08;;;;;;;17.03;16.23;;;5.20;99.90;;;;;;5118007;27;20502;-72
2021/03/27 02:48:45;;;;;;;16.87;16.07;;;5.20;99.90;;;;;;5117676;27;20817;-72
2021/03/27 02:51:21;;;;;;;16.67;15.87;;;5.10;99.90;;;;;;5117347;27;20954;-72
2021/03/27 02:53:59;;;;;;;17.20;16.40;;;5.00;99.90;;;;;;5118920;27;20475;-72
2021/03/27 02:56:30;;;;;;;17.40;16.60;;;5.00;99.90;;;;;;5116039;27;20461;-72
2021/03/27 02:59:20;;;;;;;17.10;16.30;;;5.00;99.90;;;;;;5120907;27;20452;-72
2021/03/27 03:01:56;;;;;;;16.83;16.03;;;5.00;99.90;;;;;;5123516;27;20931;-72
2021/03/27 03:04:36;;;;;;;15.47;14.77;;;5.10;99.90;;;;;;5114625;27;20839;-72
2021/03/27 03:07:09;;;;;;;15.97;15.23;;;5.20;99.90;;;;;;5123903;27;20456;-72
2021/03/27 03:09:44;;;;;;;15.13;14.43;;;5.20;99.90;;;;;;5116585;27;20457;-72
2021/03/27 03:12:17;;;;;;;13.83;13.23;;;5.20;99.90;;;;;;5120225;27;20458;-72
2021/03/27 03:14:53;;;;;;;14.20;13.60;;;5.30;99.90;;;;;;5114383;27;20502;-72
2021/03/27 03:17:29;;;;;;;14.00;13.40;;;5.40;99.90;;;;;;5117346;27;20932;-72
2021/03/27 03:20:04;;;;;;;13.43;12.83;;;5.40;99.90;;;;;;5108422;27;20484;-72
2021/03/27 03:22:35;;;;;;;13.43;12.83;;;5.40;99.90;;;;;;5120202;27;20483;-72
2021/03/27 03:25:08;;;;;;;13.57;12.97;;;5.40;99.90;;;;;;5122816;27;20497;-72
2021/03/27 03:27:57;;;;;;;13.93;13.33;;;5.50;99.90;;;;;;5119947;27;20483;-72
2021/03/27 03:30:29;;;;;;;12.70;12.20;;;5.50;99.90;;;;;;5119679;27;20456;-72
2021/03/27 03:33:23;;;;;;;12.47;11.97;;;5.40;99.90;;;;;;5111197;27;20820;-72
2021/03/27 03:35:55;;;;;;;13.20;12.60;;;5.40;99.90;;;;;;5115319;27;20468;-72
2021/03/27 03:38:36;;;;;;;12.63;12.13;;;5.30;99.90;;;;;;5121182;27;20461;-72
2021/03/27 03:41:12;;;;;;;13.30;12.70;;;5.30;99.90;;;;;;5109756;27;20457;-72
2021/03/27 03:43:50;;;;;;;13.30;12.70;;;5.30;99.90;;;;;;5121277;27;20466;-72
2021/03/27 03:46:25;;;;;;;17.93;16.50;;;5.20;99.90;;;;;;5112475;27;20468;-72
2021/03/27 03:49:31;;;;;;;18.10;16.70;;;5.20;99.90;;;;;;5117467;27;20467;-72
2021/03/27 03:52:12;;;;;;;15.90;14.90;;;5.20;99.90;;;;;;5118097;27;20835;-72
2021/03/27 03:54:52;;;;;;;16.90;15.10;;;5.20;99.90;;;;;;5119502;27;21295;-75
2021/03/27 03:57:43;;;;;;;17.27;15.73;;;5.20;99.90;;;;;;5114947;27;20460;-72
2021/03/27 04:00:15;;;;;;;18.27;15.90;;;5.20;99.90;;;;;;5116757;27;21000;-72
2021/03/27 04:02:47;;;;;;;17.00;15.77;;;5.20;99.90;;;;;;5111062;27;20453;-72
2021/03/27 04:05:20;;;;;;;17.00;15.60;;;5.20;99.90;;;;;;5113069;27;20496;-72
2021/03/27 04:07:56;;;;;;;16.67;15.30;;;5.10;99.90;;;;;;5118004;27;20459;-72
2021/03/27 04:10:26;;;;;;;16.43;14.90;;;5.10;99.90;;;;;;5107065;27;20927;-72
2021/03/27 04:12:59;;;;;;;18.93;15.37;;;5.10;99.90;;;;;;5116852;27;20946;-72
2021/03/27 04:15:34;;;;;;;15.43;14.33;;;5.00;99.90;;;;;;5115367;27;20457;-72
2021/03/27 04:18:08;;;;;;;15.93;14.43;;;5.00;99.90;;;;;;5116327;27;20461;-72
2021/03/27 04:20:51;;;;;;;16.53;14.83;;;5.00;99.90;;;;;;5121582;27;20463;-71
2021/03/27 04:23:24;;;;;;;19.53;14.80;;;5.00;99.90;;;;;;5117696;27;20796;-72
2021/03/27 04:26:06;;;;;;;15.60;14.13;;;4.90;99.90;;;;;;5115495;27;20967;-72
2021/03/27 04:28:50;;;;;;;16.23;14.93;;;5.00;99.90;;;;;;5111430;28;20453;-72
2021/03/27 04:31:22;;;;;;;15.80;14.80;;;4.90;99.90;;;;;;5115315;27;20535;-72
2021/03/27 04:33:57;;;;;;;15.50;13.97;;;5.00;99.90;;;;;;5116814;27;20461;-72
2021/03/27 04:36:30;;;;;;;15.90;14.67;;;4.90;99.90;;;;;;5111347;28;20456;-72
2021/03/27 04:39:00;;;;;;;13.10;12.23;;;4.90;99.90;;;;;;5101151;28;20465;-72
2021/03/27 04:41:40;;;;;;;13.73;12.70;;;4.90;99.90;;;;;;5119177;28;20825;-72
2021/03/27 04:44:14;;;;;;;13.63;12.63;;;5.00;99.90;;;;;;5120304;28;20484;-72
2021/03/27 04:46:46;;;;;;;13.07;11.93;;;5.10;99.90;;;;;;5112981;28;20460;-72
2021/03/27 04:49:22;;;;;;;14.30;11.40;;;5.20;99.90;;;;;;5116497;28;20449;-72
2021/03/27 04:52:00;;;;;;;13.27;11.57;;;5.20;99.90;;;;;;5119587;28;20464;-72
2021/03/27 04:54:37;;;;;;;14.30;12.87;;;5.30;99.90;;;;;;5117917;28;20456;-72
2021/03/27 04:57:16;;;;;;;11.80;11.00;;;5.40;99.90;;;;;;5112437;28;20464;-72
2021/03/27 05:00:00;;;;;;;16.93;12.07;;;5.50;99.90;;;;;;5114476;28;20448;-72
2021/03/27 05:02:34;;;;;;;11.73;10.73;;;5.60;99.90;;;;;;5112192;28;20513;-72
2021/03/27 05:05:07;;;;;;;11.53;10.83;;;5.60;99.90;;;;;;5117647;28;20492;-72
2021/03/27 05:07:48;;;;;;;14.30;11.90;;;5.60;99.90;;;;;;5115365;27;21208;-71
2021/03/27 05:10:18;;;;;;;12.87;11.50;;;5.60;99.90;;;;;;5122214;27;20490;-72
2021/03/27 05:13:00;;;;;;;10.87;9.97;;;5.40;99.90;;;;;;5120799;27;20457;-71
2021/03/27 05:15:34;;;;;;;11.20;10.50;;;5.20;99.90;;;;;;5119352;27;20464;-72
2021/03/27 05:18:38;;;;;;;11.80;10.80;;;5.20;99.90;;;;;;5120613;27;20455;-72
2021/03/27 05:21:17;;;;;;;11.80;10.70;;;5.20;99.90;;;;;;5103388;27;20872;-71
2021/03/27 05:23:53;;;;;;;11.57;10.53;;;5.20;99.90;;;;;;5112675;27;21004;-72
2021/03/27 05:26:33;;;;;;;11.83;10.70;;;5.10;99.90;;;;;;5122275;27;20463;-72
2021/03/27 05:29:11;;;;;;;10.53;10.03;;;5.20;99.90;;;;;;5123616;27;20459;-72
2021/03/27 05:31:54;;;;;;;14.83;11.60;;;5.20;99.90;;;;;;5116935;27;20654;-71
2021/03/27 05:34:30;;;;;;;13.10;11.90;;;5.30;99.90;;;;;;5119312;27;20470;-72
2021/03/27 05:37:32;;;;;;;13.23;12.17;;;5.30;99.90;;;;;;5117127;27;20449;-72
2021/03/27 05:40:22;;;;;;;12.67;11.70;;;5.40;99.90;;;;;;5115931;27;20504;-71
2021/03/27 05:43:20;;;;;;;16.43;11.93;;;5.50;99.90;;;;;;5118791;27;20862;-72
2021/03/27 05:46:33;;;;;;;18.53;13.00;;;5.60;99.90;;;;;;5124466;27;20483;-72
2021/03/27 05:49:34;;;;;;;12.97;11.77;;;5.70;99.90;;;;;;5120154;27;20457;-72
2021/03/27 05:52:23;;;;;;;13.83;12.60;;;5.70;99.90;;;;;;5116465;27;20464;-72
2021/03/27 05:55:29;;;;;;;13.13;11.90;;;5.90;99.90;;;;;;5117221;27;20460;-72
2021/03/27 05:58:28;;;;;;;14.57;12.63;;;6.00;99.90;;;;;;5119209;27;20456;-72
2021/03/27 06:01:15;;;;;;;14.00;13.00;;;6.00;99.90;;;;;;5115843;27;20458;-72
2021/03/27 06:04:09;;;;;;;13.83;12.70;;;6.00;99.90;;;;;;5125528;27;20464;-72
2021/03/27 06:07:23;;;;;;;17.70;16.40;;;6.10;99.90;;;;;;5118326;27;20453;-72
2021/03/27 06:10:14;;;;;;;21.23;19.53;;;5.90;99.90;;;;;;5122458;27;20519;-74
2021/03/27 06:12:56;;;;;;;21.83;20.10;;;5.50;99.90;;;;;;5120108;27;20818;-73
2021/03/27 06:16:11;;;;;;;22.00;20.23;;;5.20;99.90;;;;;;5113699;27;20476;-74
2021/03/27 06:19:03;;;;;;;20.53;19.03;;;5.00;99.90;;;;;;5032053;28;20472;-74
2021/03/27 06:21:41;;;;;;;21.07;19.80;;;5.00;99.90;;;;;;5119471;27;20453;-73
2021/03/27 06:24:43;;;;;;;22.20;20.27;;;5.00;99.90;;;;;;5122049;27;21078;-72
2021/03/27 06:27:34;;;;;;;19.77;18.47;;;5.00;99.90;;;;;;5115871;27;20494;-73
2021/03/27 06:30:33;;;;;;;21.70;19.90;;;5.20;99.90;;;;;;5121771;27;20470;-73
2021/03/27 06:33:33;;;;;;;21.60;19.70;;;5.30;99.90;;;;;;5109442;27;20472;-72
2021/03/27 06:36:08;;;;;;;20.97;19.33;;;5.20;99.90;;;;;;5113026;27;20942;-73
2021/03/27 06:39:16;;;;;;;21.37;18.73;;;5.20;99.90;;;;;;5111525;27;20494;-72
2021/03/27 06:42:06;;;;;;;20.00;18.50;;;5.30;99.90;;;;;;5114825;27;20458;-72
2021/03/27 06:45:04;;;;;;;20.63;19.20;;;5.20;99.90;;;;;;5116044;27;20833;-73
2021/03/27 06:47:54;;;;;;;19.93;18.50;;;5.20;99.90;;;;;;5107595;27;20459;-72
2021/03/27 06:50:53;;;;;;;19.17;17.97;;;5.10;99.90;;;;;;5116639;27;20453;-72
2021/03/27 06:53:42;;;;;;;18.00;16.47;;;4.90;99.90;;;;;;5125950;27;20568;-72
2021/03/27 06:56:38;;;;;;;16.67;15.77;;;4.70;99.90;;;;;;5116507;27;20458;-73
2021/03/27 06:59:28;;;;;;;18.03;16.63;;;4.70;99.90;;;;;;5117676;27;20524;-73
2021/03/27 07:02:32;;;;;;;16.83;15.93;;;4.70;99.90;;;;;;5109648;27;20480;-72
2021/03/27 07:05:50;;;;;;;16.13;15.27;;;4.60;99.90;;;;;;5117701;27;20482;-72
2021/03/27 07:08:46;;;;;;;14.80;14.00;;;4.70;99.90;;;;;;5113834;27;20464;-73
2021/03/27 07:11:53;;;;;;;15.70;14.60;;;4.70;99.90;;;;;;5113856;27;20487;-73
2021/03/27 07:15:03;;;;;;;14.50;13.70;;;4.70;99.90;;;;;;5063039;27;20463;-73
2021/03/27 07:17:44;;;;;;;14.60;13.70;;;4.70;99.90;;;;;;5112292;27;20465;-73
2021/03/27 07:20:40;;;;;;;14.17;13.30;;;4.50;99.90;;;;;;5119095;27;20467;-73
2021/03/27 07:23:36;;;;;;;13.57;12.77;;;4.60;99.90;;;;;;5124416;27;20508;-72
2021/03/27 07:26:27;;;;;;;12.07;11.37;;;4.70;99.90;;;;;;5090805;27;21665;-72
2021/03/27 07:29:31;;;;;;;13.13;12.10;;;4.80;99.90;;;;;;5085958;27;20512;-72
2021/03/27 07:32:20;;;;;;;13.40;12.57;;;4.80;99.90;;;;;;5107663;27;20456;-72
2021/03/27 07:35:07;;;;;;;14.50;13.03;;;4.90;99.90;;;;;;5107501;27;20489;-72
2021/03/27 07:37:59;;;;;;;13.90;12.90;;;5.00;99.90;;;;;;5118184;27;20452;-73
2021/03/27 07:40:40;;;;;;;14.47;13.57;;;5.10;99.90;;;;;;5114119;27;20468;-72
2021/03/27 07:43:42;;;;;;;13.77;13.07;;;5.10;99.90;;;;;;5119325;27;20456;-72
2021/03/27 07:46:53;;;;;;;13.47;12.67;;;5.20;99.90;;;;;;5109881;27;20489;-72
2021/03/27 07:49:37;;;;;;;13.93;13.10;;;5.10;99.90;;;;;;5054758;27;20849;-72
2021/03/27 07:52:17;;;;;;;14.57;13.70;;;5.10;99.90;;;;;;5106983;27;20541;-72
2021/03/27 07:55:10;;;;;;;15.73;14.20;;;5.20;99.90;;;;;;5106239;27;20930;-72
2021/03/27 07:57:56;;;;;;;14.13;13.20;;;5.40;99.90;;;;;;5108303;27;20475;-72
2021/03/27 08:00:41;;;;;;;15.50;14.23;;;5.50;99.90;;;;;;5107749;27;20533;-72
2021/03/27 08:03:37;;;;;;;15.33;14.30;;;5.70;99.90;;;;;;5114098;27;20844;-72
2021/03/27 08:06:17;;;;;;;14.40;13.50;;;5.80;99.90;;;;;;5090978;27;20484;-72
2021/03/27 08:09:05;;;;;;;14.43;13.73;;;5.90;99.90;;;;;;5116470;27;20456;-72
2021/03/27 08:11:56;;;;;;;14.20;13.50;;;5.90;99.90;;;;;;5123549;27;20516;-72
2021/03/27 08:14:29;;;;;;;14.70;13.43;;;6.00;99.90;;;;;;5115152;27;20465;-72
2021/03/27 08:17:35;;;;;;;14.77;13.63;;;6.00;99.90;;;;;;5116152;27;20528;-72
2021/03/27 08:20:30;;;;;;;13.47;12.57;;;6.00;99.90;;;;;;5109589;27;20463;-72
2021/03/27 08:23:23;;;;;;;15.00;13.53;;;6.00;99.90;;;;;;5112998;27;20819;-72
2021/03/27 08:26:06;;;;;;;15.20;14.00;;;6.10;99.90;;;;;;5113274;27;20490;-72
2021/03/27 08:29:00;;;;;;;15.00;13.87;;;6.10;99.90;;;;;;5118239;27;20472;-72
2021/03/27 08:32:15;;;;;;;13.90;13.10;;;6.30;99.90;;;;;;5105025;27;20484;-72
2021/03/27 08:35:10;;;;;;;15.07;13.77;;;6.40;99.90;;;;;;5087768;28;20987;-72
2021/03/27 08:38:04;;;;;;;15.43;14.10;;;6.60;99.90;;;;;;5118585;27;20464;-72
2021/03/27 08:40:58;;;;;;;14.67;13.53;;;6.70;99.90;;;;;;5086624;28;20485;-72
2021/03/27 08:43:51;;;;;;;15.93;14.60;;;6.70;99.90;;;;;;5113821;28;20471;-72
2021/03/27 08:47:01;;;;;;;14.17;13.03;;;6.80;99.90;;;;;;5117386;28;20490;-72
2021/03/27 08:50:07;;;;;;;13.83;12.93;;;7.10;99.90;;;;;;5111634;28;20462;-72
2021/03/27 08:52:56;;;;;;;14.77;13.60;;;7.10;99.90;;;;;;5112940;28;20453;-72
2021/03/27 08:56:06;;;;;;;15.67;14.13;;;7.10;99.90;;;;;;5120881;28;20959;-72
2021/03/27 08:58:51;;;;;;;16.23;14.57;;;7.20;99.90;;;;;;5107026;28;20515;-72
2021/03/27 09:01:48;;;;;;;16.43;15.20;;;7.50;99.90;;;;;;5115998;28;20461;-72
2021/03/27 09:04:33;;;;;;;14.47;13.30;;;7.50;99.90;;;;;;5115932;28;20487;-72
2021/03/27 09:07:23;;;;;;;16.17;14.97;;;7.70;99.90;;;;;;5108694;28;20450;-72
2021/03/27 09:10:11;;;;;;;15.53;14.03;;;7.70;99.90;;;;;;5114607;28;20457;-72
2021/03/27 09:13:02;;;;;;;14.00;12.97;;;7.80;99.90;;;;;;5081998;28;20462;-72
2021/03/27 09:15:44;;;;;;;15.87;14.80;;;8.00;99.90;;;;;;5099251;28;20822;-72
2021/03/27 09:18:38;;;;;;;13.93;13.10;;;8.40;99.90;;;;;;5115032;28;20466;-72
2021/03/27 09:21:27;;;;;;;15.17;13.87;;;8.10;99.90;;;;;;5113027;28;20470;-72
2021/03/27 09:23:59;;;;;;;15.90;14.70;;;8.10;99.90;;;;;;5106771;28;21038;-72
2021/03/27 09:26:58;;;;;;;15.70;14.60;;;8.20;99.90;;;;;;5111430;28;20508;-72
2021/03/27 09:30:07;;;;;;;19.37;15.53;;;8.00;99.90;;;;;;5108167;28;20459;-72
2021/03/27 09:32:47;;;;;;;26.87;17.70;;;7.90;99.90;;;;;;5094517;28;20443;-72
2021/03/27 09:35:43;;;;;;;19.27;18.07;;;7.60;99.90;;;;;;5111389;28;20473;-73
2021/03/27 09:38:36;;;;;;;21.93;20.23;;;7.20;99.90;;;;;;5115853;28;20464;-72
2021/03/27 09:41:24;;;;;;;26.27;21.03;;;7.00;99.90;;;;;;5111844;28;20954;-72
2021/03/27 09:44:12;;;;;;;19.63;17.50;;;7.10;99.90;;;;;;5113917;28;20546;-72
2021/03/27 09:46:48;;;;;;;18.97;17.40;;;8.00;99.90;;;;;;5116955;28;20452;-72
2021/03/27 09:49:30;;;;;;;18.50;17.00;;;8.30;99.90;;;;;;5111438;28;20499;-72
2021/03/27 09:52:16;;;;;;;18.50;17.10;;;8.00;99.90;;;;;;5110263;28;20469;-72
2021/03/27 09:54:47;;;;;;;17.67;16.50;;;7.60;99.90;;;;;;5112756;27;20467;-73
2021/03/27 09:57:24;;;;;;;19.00;17.10;;;7.20;99.90;;;;;;5110184;27;20905;-73
2021/03/27 10:00:11;;;;;;;20.47;16.90;;;7.70;99.90;;;;;;5103367;27;20462;-73
2021/03/27 10:02:40;;;;;;;18.83;16.90;;;8.20;99.90;;;;;;5107748;27;20467;-72
2021/03/27 10:05:25;;;;;;;17.90;16.80;;;8.50;99.90;;;;;;5105904;27;20965;-72
2021/03/27 10:08:12;;;;;;;27.77;25.40;;;8.50;99.90;;;;;;5112861;27;20456;-73
2021/03/27 10:10:54;;;;;;;26.60;24.23;;;7.50;99.90;;;;;;5107158;27;20500;-73
2021/03/27 10:14:02;;;;;;;30.40;27.10;;;6.90;99.90;;;;;;5108907;27;20468;-73
2021/03/27 10:16:40;;;;;;;28.83;26.10;;;6.30;99.90;;;;;;5110729;27;21003;-73
2021/03/27 10:19:28;;;;;;;30.07;27.87;;;5.10;99.90;;;;;;5114010;27;20457;-72
2021/03/27 10:22:12;;;;;;;23.67;22.07;;;4.90;99.90;;;;;;5116909;27;20457;-72
2021/03/27 10:24:44;;;;;;;20.90;19.60;;;5.20;99.90;;;;;;5117461;27;20480;-75
2021/03/27 10:27:19;;;;;;;18.47;17.47;;;5.50;99.90;;;;;;5109413;27;20464;-74
2021/03/27 10:29:55;;;;;;;18.53;17.53;;;6.30;99.90;;;;;;5110308;27;20464;-75
2021/03/27 10:32:53;;;;;;;18.30;17.30;;;6.60;99.90;;;;;;5115815;27;20458;-74
2021/03/27 10:35:56;;;;;;;19.03;18.03;;;6.70;99.90;;;;;;5115378;27;20473;-74
2021/03/27 10:38:46;;;;;;;18.10;17.20;;;7.00;99.90;;;;;;5113860;27;20459;-72
2021/03/27 10:41:21;;;;;;;16.97;16.17;;;7.80;99.90;;;;;;5121278;27;20811;-73
2021/03/27 10:43:55;;;;;;;19.93;18.43;;;8.70;99.90;;;;;;5115155;27;20460;-73
2021/03/27 10:46:29;;;;;;;20.93;18.70;;;9.40;99.90;;;;;;5117967;27;20901;-73
2021/03/27 10:49:26;;;;;;;19.90;18.50;;;9.30;99.90;;;;;;5108666;27;20471;-74
2021/03/27 10:52:14;;;;;;;20.57;18.73;;;9.80;99.90;;;;;;5108150;27;20461;-74
2021/03/27 10:55:09;;;;;;;19.33;18.13;;;10.20;99.90;;;;;;5109663;27;20465;-74
2021/03/27 10:58:18;;;;;;;19.23;17.80;;;10.40;99.90;;;;;;5090501;27;20473;-74
2021/03/27 11:00:59;;;;;;;18.93;17.47;;;10.50;99.90;;;;;;5103613;27;20461;-73
2021/03/27 11:04:11;;;;;;;18.30;16.87;;;10.50;99.90;;;;;;5107391;27;20691;-73
2021/03/27 11:07:13;;;;;;;17.50;16.23;;;10.50;99.90;;;;;;5092434;27;20491;-73
2021/03/27 11:10:28;;;;;;;17.60;16.23;;;9.80;99.90;;;;;;5114330;27;20467;-73
2021/03/27 11:13:38;;;;;;;18.60;16.57;;;9.50;99.90;;;;;;5073993;27;20468;-73
2021/03/27 11:17:00;;;;;;;17.27;16.07;;;9.10;99.90;;;;;;5112675;27;20461;-73
2021/03/27 11:20:06;;;;;;;16.13;15.13;;;9.30;99.90;;;;;;5109275;27;20456;-73
2021/03/27 11:22:50;;;;;;;17.97;16.40;;;10.30;99.90;;;;;;5119376;27;20647;-73
2021/03/27 11:25:51;;;;;;;17.83;16.50;;;11.10;99.90;;;;;;5109942;27;20491;-73
2021/03/27 11:28:24;;;;;;;17.50;16.50;;;11.20;99.90;;;;;;5110104;27;20464;-73
2021/03/27 11:31:26;;;;;;;16.90;15.60;;;11.30;99.90;;;;;;5100550;27;20487;-73
2021/03/27 11:34:10;;;;;;;16.97;15.87;;;11.00;99.90;;;;;;5112634;27;20465;-73
2021/03/27 11:36:43;;;;;;;17.97;15.80;;;11.00;99.90;;;;;;5113709;27;20577;-72
2021/03/27 11:39:19;;;;;;;20.20;18.60;;;10.90;99.90;;;;;;5108082;27;20453;-73
2021/03/27 11:41:57;;;;;;;16.00;15.20;;;10.40;99.90;;;;;;5107085;27;20453;-74
2021/03/27 11:44:39;;;;;;;17.90;16.80;;;11.10;99.90;;;;;;5108491;27;20460;-74
2021/03/27 11:47:21;;;;;;;17.10;15.80;;;11.40;99.90;;;;;;5111152;27;20862;-74
2021/03/27 11:49:53;;;;;;;17.10;15.50;;;11.90;99.90;;;;;;5110492;27;20493;-74
2021/03/27 11:52:26;;;;;;;17.57;16.13;;;12.20;99.90;;;;;;5105862;27;20564;-73
2021/03/27 11:55:02;;;;;;;17.30;16.20;;;12.30;99.90;;;;;;5111985;27;20545;-74
2021/03/27 11:57:45;;;;;;;16.03;15.20;;;11.50;99.90;;;;;;5108331;27;20475;-72
2021/03/27 12:00:48;;;;;;;17.80;16.50;;;11.00;99.90;;;;;;5107298;27;20456;-73
2021/03/27 12:03:31;;;;;;;16.50;15.50;;;10.20;99.90;;;;;;5112905;27;20457;-74
2021/03/27 12:06:10;;;;;;;17.97;16.93;;;9.50;99.90;;;;;;5113573;27;20962;-73
2021/03/27 12:08:44;;;;;;;17.13;16.07;;;10.30;99.90;;;;;;5112897;27;20549;-73
2021/03/27 12:11:16;;;;;;;18.13;17.00;;;11.20;99.90;;;;;;5110524;27;20492;-73
2021/03/27 12:13:52;;;;;;;18.07;16.60;;;11.00;99.90;;;;;;5109811;27;20465;-73
2021/03/27 12:16:24;;;;;;;17.30;16.20;;;10.20;99.90;;;;;;5108303;27;20475;-73
2021/03/27 12:19:16;;;;;;;19.80;18.67;;;9.90;99.90;;;;;;5111505;27;20464;-72
2021/03/27 12:21:50;;;;;;;16.70;15.70;;;10.70;99.90;;;;;;5100022;27;20475;-73
2021/03/27 12:24:26;;;;;;;16.40;15.30;;;11.20;99.90;;;;;;5114313;27;20468;-74
2021/03/27 12:26:59;;;;;;;17.30;16.00;;;11.60;99.90;;;;;;5120815;27;20573;-74
2021/03/27 12:29:37;;;;;;;16.93;15.70;;;12.20;99.90;;;;;;5110406;27;20461;-74
2021/03/27 12:32:38;;;;;;;18.03;16.67;;;12.60;99.90;;;;;;5111555;27;20456;-73
2021/03/27 12:35:14;;;;;;;19.30;17.40;;;12.60;99.90;;;;;;5095390;27;20461;-73
2021/03/27 12:37:46;;;;;;;16.90;15.67;;;12.30;99.90;;;;;;5118013;28;20874;-72
2021/03/27 12:40:24;;;;;;;16.70;15.63;;;11.30;99.90;;;;;;5114019;28;20841;-72
2021/03/27 12:42:54;;;;;;;17.40;16.30;;;10.50;99.90;;;;;;5113819;28;20453;-72
2021/03/27 12:45:26;;;;;;;18.67;17.70;;;10.10;99.90;;;;;;5114797;28;20493;-73
2021/03/27 12:48:17;;;;;;;17.27;15.80;;;9.90;99.90;;;;;;5112223;28;20461;-72
2021/03/27 12:51:03;;;;;;;16.00;15.13;;;10.90;99.90;;;;;;5103219;28;21162;-72
2021/03/27 12:53:53;;;;;;;17.90;16.77;;;12.00;99.90;;;;;;5106517;28;21005;-72
2021/03/27 12:56:43;;;;;;;17.67;16.37;;;12.40;99.90;;;;;;5105009;28;20468;-72
2021/03/27 12:59:14;;;;;;;17.73;16.53;;;12.40;99.90;;;;;;5100099;28;20491;-72
2021/03/27 13:02:21;;;;;;;16.50;15.70;;;12.60;98.90;;;;;;5103674;28;20456;-71
2021/03/27 13:05:12;;;;;;;17.10;15.93;;;12.70;97.10;;;;;;5110589;28;20464;-72
2021/03/27 13:07:50;;;;;;;17.07;16.00;;;12.90;95.40;;;;;;5106583;28;20441;-72
2021/03/27 13:10:32;;;;;;;16.87;15.80;;;12.60;97.20;;;;;;5106134;28;20490;-72
2021/03/27 13:13:31;;;;;;;16.90;16.00;;;13.10;97.70;;;;;;5108956;28;21100;-72
2021/03/27 13:16:07;;;;;;;16.43;15.67;;;13.20;96.10;;;;;;5044249;28;21155;-72
2021/03/27 13:18:41;;;;;;;16.87;15.90;;;13.00;97.20;;;;;;5106238;28;20476;-72
2021/03/27 13:21:21;;;;;;;16.40;15.50;;;13.30;95.90;;;;;;5109536;28;20461;-72
2021/03/27 13:23:53;;;;;;;16.43;15.57;;;13.60;95.10;;;;;;5110219;28;20489;-73
2021/03/27 13:26:22;;;;;;;15.50;14.30;;;13.90;92.70;;;;;;5115029;28;20596;-73
2021/03/27 13:28:56;;;;;;;15.90;15.00;;;13.50;92.20;;;;;;5113124;27;20487;-73
2021/03/27 13:31:27;;;;;;;15.77;14.60;;;13.10;92.10;;;;;;5115817;27;20449;-73
2021/03/27 13:34:02;;;;;;;15.40;14.50;;;12.80;95.20;;;;;;5122363;27;20464;-73
2021/03/27 13:36:33;;;;;;;15.30;14.13;;;13.20;95.40;;;;;;5119289;27;21190;-72
2021/03/27 13:39:08;;;;;;;16.10;14.80;;;13.30;93.70;;;;;;5117010;27;20502;-73
2021/03/27 13:41:58;;;;;;;15.20;14.30;;;13.70;95.50;;;;;;5111519;27;20464;-74
2021/03/27 13:44:31;;;;;;;15.90;14.90;;;13.70;94.00;;;;;;5122114;27;20468;-72
2021/03/27 13:47:09;;;;;;;15.10;14.30;;;13.80;93.90;;;;;;5112909;27;20515;-73
2021/03/27 13:49:43;;;;;;;15.73;14.30;;;13.80;92.20;;;;;;5111390;27;20984;-73
2021/03/27 13:52:21;;;;;;;16.03;15.00;;;14.20;93.00;;;;;;5112769;27;20465;-73
2021/03/27 13:54:52;;;;;;;16.93;15.57;;;13.90;92.40;;;;;;5118781;27;20468;-73
2021/03/27 13:57:24;;;;;;;16.03;14.93;;;14.10;94.20;;;;;;5118536;27;20456;-73